createdAt,value
2018-04-02T00:01:54.385Z,108.67
2018-04-02T00:04:20.593Z,103.93
2018-04-02T00:06:47.577Z,103.93
2018-04-02T00:09:13.814Z,106.87
2018-04-02T00:11:40.101Z,105.23
2018-04-02T00:14:06.321Z,105.03
2018-04-02T00:16:32.959Z,101.23
2018-04-02T00:18:59.198Z,101.93
2018-04-02T00:21:25.537Z,99.63
2018-04-02T00:23:51.813Z,94.17
2018-04-02T00:26:18.034Z,101.40
2018-04-02T00:28:44.253Z,99.60
2018-04-02T00:31:10.476Z,91.87
2018-04-02T00:33:36.698Z,95.47
2018-04-02T00:36:03.686Z,89.13
2018-04-02T00:38:29.882Z,94.00
2018-04-02T00:40:56.144Z,91.97
2018-04-02T00:43:23.087Z,94.40
2018-04-02T00:45:49.307Z,95.20
2018-04-02T00:48:15.548Z,91.20
2018-04-02T00:50:42.490Z,90.43
2018-04-02T00:53:09.427Z,89.93
2018-04-02T00:55:35.645Z,92.33
2018-04-02T00:58:03.312Z,98.50
2018-04-02T01:00:29.537Z,92.43
2018-04-02T01:02:55.791Z,94.13
2018-04-02T01:05:22.147Z,93.97
2018-04-02T01:07:48.337Z,94.10
2018-04-02T01:10:14.632Z,93.63
2018-04-02T01:12:40.873Z,99.13
2018-04-02T01:15:07.080Z,93.63
2018-04-02T01:17:33.274Z,97.90
2018-04-02T01:19:59.513Z,85.03
2018-04-02T01:22:25.752Z,87.17
2018-04-02T01:24:51.997Z,92.20
2018-04-02T01:27:18.209Z,92.80
2018-04-02T01:29:44.410Z,92.43
2018-04-02T01:32:10.630Z,94.83
2018-04-02T01:34:37.582Z,95.57
2018-04-02T01:37:03.816Z,98.43
2018-04-02T01:39:30.222Z,96.77
2018-04-02T01:41:57.175Z,91.10
2018-04-02T01:44:23.417Z,89.10
2018-04-02T01:46:49.646Z,93.37
2018-04-02T01:49:16.091Z,93.40
2018-04-02T01:51:42.732Z,91.30
2018-04-02T01:54:09.214Z,89.50
2018-04-02T01:56:35.552Z,88.50
2018-04-02T01:59:01.922Z,89.50
2018-04-02T02:01:28.211Z,92.33
2018-04-02T02:03:54.486Z,98.23
2018-04-02T02:06:20.782Z,91.13
2018-04-02T02:08:46.989Z,97.20
2018-04-02T02:11:13.182Z,97.33
2018-04-02T02:13:39.418Z,106.07
2018-04-02T02:16:05.616Z,101.23
2018-04-02T02:18:31.807Z,98.10
2018-04-02T02:20:58.773Z,96.33
2018-04-02T02:23:24.978Z,98.00
2018-04-02T02:25:51.947Z,96.60
2018-04-02T02:28:18.153Z,100.60
2018-04-02T02:30:45.094Z,96.10
2018-04-02T02:33:12.071Z,102.07
2018-04-02T02:35:38.327Z,93.33
2018-04-02T02:38:05.282Z,104.80
2018-04-02T02:40:31.568Z,108.87
2018-04-02T02:42:57.760Z,100.53
2018-04-02T02:45:24.748Z,94.57
2018-04-02T02:47:50.980Z,89.77
2018-04-02T02:50:17.190Z,93.97
2018-04-02T02:52:43.411Z,105.03
2018-04-02T02:55:09.658Z,108.97
2018-04-02T02:57:36.267Z,108.63
2018-04-02T03:00:02.524Z,109.33
2018-04-02T03:02:28.718Z,105.10
2018-04-02T03:04:55.663Z,102.70
2018-04-02T03:07:21.890Z,108.73
2018-04-02T03:09:48.872Z,104.60
2018-04-02T03:12:15.122Z,102.57
2018-04-02T03:14:41.333Z,101.10
2018-04-02T03:17:07.518Z,103.00
2018-04-02T03:19:33.846Z,101.73
2018-04-02T03:22:00.802Z,103.43
2018-04-02T03:24:27.898Z,102.67
2018-04-02T03:26:54.902Z,98.87
2018-04-02T03:29:21.847Z,101.47
2018-04-02T03:31:48.082Z,104.23
2018-04-02T03:34:14.290Z,104.30
2018-04-02T03:36:41.236Z,102.67
2018-04-02T03:39:08.614Z,99.70
2018-04-02T03:41:35.035Z,98.83
2018-04-02T03:44:01.302Z,100.00
2018-04-02T03:46:27.519Z,102.47
2018-04-02T03:48:53.764Z,104.93
2018-04-02T03:51:20.001Z,100.43
2018-04-02T03:53:46.232Z,102.40
2018-04-02T03:56:13.902Z,104.60
2018-04-02T03:58:40.097Z,101.50
2018-04-02T04:01:06.292Z,100.60
2018-04-02T04:03:32.483Z,100.90
2018-04-02T04:05:58.693Z,95.83
2018-04-02T04:08:24.912Z,103.53
2018-04-02T04:10:51.172Z,105.50
2018-04-02T04:13:18.137Z,107.23
2018-04-02T04:15:45.065Z,106.10
2018-04-02T04:18:12.009Z,107.47
2018-04-02T04:20:38.961Z,107.60
2018-04-02T04:23:05.909Z,105.27
2018-04-02T04:25:32.181Z,108.37
2018-04-02T04:27:58.388Z,107.83
2018-04-02T04:30:24.617Z,112.23
2018-04-02T04:32:50.805Z,110.20
2018-04-02T04:35:17.807Z,107.07
2018-04-02T04:37:44.058Z,112.10
2018-04-02T04:40:10.264Z,110.67
2018-04-02T04:42:36.466Z,111.67
2018-04-02T04:45:02.832Z,110.17
2018-04-02T04:47:29.035Z,111.50
2018-04-02T04:49:55.230Z,103.80
2018-04-02T04:52:21.503Z,107.37
2018-04-02T04:54:47.702Z,105.27
2018-04-02T04:57:13.930Z,100.93
2018-04-02T04:59:40.122Z,103.00
2018-04-02T05:02:06.358Z,104.67
2018-04-02T05:04:33.354Z,101.83
2018-04-02T05:06:59.558Z,101.10
2018-04-02T05:09:25.777Z,101.40
2018-04-02T05:11:52.020Z,100.47
2018-04-02T05:14:18.236Z,99.90
2018-04-02T05:16:44.433Z,97.97
2018-04-02T05:19:10.713Z,97.53
2018-04-02T05:21:36.973Z,93.30
2018-04-02T05:24:03.210Z,93.13
2018-04-02T05:26:29.402Z,93.53
2018-04-02T05:28:55.618Z,91.80
2018-04-02T05:31:21.801Z,88.57
2018-04-02T05:33:47.995Z,87.97
2018-04-02T05:36:14.203Z,86.00
2018-04-02T05:38:40.409Z,83.37
2018-04-02T05:41:06.663Z,85.30
2018-04-02T05:43:32.875Z,85.53
2018-04-02T05:45:59.155Z,83.97
2018-04-02T05:48:25.377Z,79.57
2018-04-02T05:50:52.034Z,81.73
2018-04-02T05:53:19.037Z,79.33
2018-04-02T05:55:45.353Z,77.30
2018-04-02T05:58:11.623Z,76.00
2018-04-02T06:00:37.850Z,75.73
2018-04-02T06:03:04.074Z,73.07
2018-04-02T06:05:30.270Z,70.07
2018-04-02T06:07:56.494Z,68.50
2018-04-02T06:10:22.709Z,68.60
2018-04-02T06:12:48.920Z,68.73
2018-04-02T06:15:15.879Z,64.97
2018-04-02T06:17:42.109Z,64.50
2018-04-02T06:20:08.310Z,59.50
2018-04-02T06:22:34.523Z,62.87
2018-04-02T06:25:00.873Z,63.50
2018-04-02T06:27:27.842Z,60.50
2018-04-02T06:29:54.068Z,56.13
2018-04-02T06:32:20.314Z,57.47
2018-04-02T06:34:46.555Z,57.73
2018-04-02T06:37:12.864Z,56.00
2018-04-02T06:39:39.069Z,60.60
2018-04-02T06:42:06.029Z,54.57
2018-04-02T06:44:32.266Z,53.93
2018-04-02T06:46:58.484Z,52.40
2018-04-02T06:49:24.723Z,54.30
2018-04-02T06:51:50.996Z,51.83
2018-04-02T06:54:18.014Z,50.43
2018-04-02T06:56:44.229Z,50.47
2018-04-02T06:59:10.447Z,49.63
2018-04-02T07:01:36.652Z,51.17
2018-04-02T07:04:03.682Z,50.10
2018-04-02T07:06:29.899Z,49.23
2018-04-02T07:08:56.106Z,47.83
2018-04-02T07:11:22.348Z,48.13
2018-04-02T07:13:48.567Z,47.50
2018-04-02T07:16:14.786Z,46.63
2018-04-02T07:18:41.001Z,45.67
2018-04-02T07:21:07.490Z,46.23
2018-04-02T07:23:33.773Z,43.70
2018-04-02T07:26:01.942Z,43.57
2018-04-02T07:28:28.147Z,41.07
2018-04-02T07:30:54.370Z,42.60
2018-04-02T07:33:20.663Z,43.20
2018-04-02T07:35:46.877Z,40.73
2018-04-02T07:38:13.113Z,39.33
2018-04-02T07:40:39.301Z,38.90
2018-04-02T07:43:05.526Z,39.20
2018-04-02T07:45:31.758Z,38.43
2018-04-02T07:47:58.004Z,36.70
2018-04-02T07:50:24.223Z,37.77
2018-04-02T07:52:50.512Z,37.13
2018-04-02T07:55:16.718Z,34.77
2018-04-02T07:57:43.662Z,33.53
2018-04-02T08:00:10.613Z,33.80
2018-04-02T08:02:37.569Z,33.87
2018-04-02T08:05:04.556Z,32.60
2018-04-02T08:07:30.829Z,32.83
2018-04-02T08:09:57.784Z,32.07
2018-04-02T08:12:24.728Z,30.23
2018-04-02T08:14:51.680Z,31.63
2018-04-02T08:17:17.969Z,30.60
2018-04-02T08:19:44.231Z,31.07
2018-04-02T08:22:11.181Z,31.67
2018-04-02T08:24:37.433Z,30.47
2018-04-02T08:27:03.675Z,30.90
2018-04-02T08:29:31.074Z,30.63
2018-04-02T08:31:58.014Z,29.20
2018-04-02T08:34:24.978Z,30.00
2018-04-02T08:36:51.910Z,27.87
2018-04-02T08:39:18.866Z,27.90
2018-04-02T08:41:45.850Z,27.23
2018-04-02T08:44:12.809Z,27.70
2018-04-02T08:46:39.179Z,27.00
2018-04-02T08:49:05.484Z,30.33
2018-04-02T08:51:31.731Z,26.17
2018-04-02T08:53:58.684Z,26.43
2018-04-02T08:56:25.719Z,26.23
2018-04-02T08:58:52.853Z,26.10
2018-04-02T09:01:19.100Z,26.37
2018-04-02T09:03:46.042Z,24.77
2018-04-02T09:06:13.045Z,26.30
2018-04-02T09:08:39.328Z,24.57
2018-04-02T09:11:06.273Z,25.37
2018-04-02T09:13:32.497Z,25.03
2018-04-02T09:15:58.724Z,25.23
2018-04-02T09:18:25.694Z,24.93
2018-04-02T09:20:51.959Z,24.87
2018-04-02T09:23:18.197Z,24.80
2018-04-02T09:25:44.422Z,33.77
2018-04-02T09:28:10.649Z,24.27
2018-04-02T09:30:36.900Z,22.57
2018-04-02T09:33:03.895Z,23.13
2018-04-02T09:35:30.136Z,21.87
2018-04-02T09:37:56.380Z,21.63
2018-04-02T09:40:22.655Z,22.60
2018-04-02T09:42:48.902Z,23.33
2018-04-02T09:45:15.162Z,21.80
2018-04-02T09:47:41.437Z,21.43
2018-04-02T09:50:07.624Z,21.03
2018-04-02T09:52:33.838Z,21.13
2018-04-02T09:55:00.022Z,20.57
2018-04-02T09:57:26.256Z,19.57
2018-04-02T09:59:52.546Z,19.57
2018-04-02T10:02:21.403Z,20.40
2018-04-02T10:04:48.494Z,19.27
2018-04-02T10:07:14.650Z,17.33
2018-04-02T10:09:40.883Z,18.30
2018-04-02T10:12:07.092Z,18.37
2018-04-02T10:14:33.408Z,17.17
2018-04-02T10:17:00.353Z,16.77
2018-04-02T10:19:27.334Z,16.17
2018-04-02T10:21:53.609Z,16.53
2018-04-02T10:24:19.818Z,15.83
2018-04-02T10:26:46.040Z,15.73
2018-04-02T10:29:12.252Z,15.80
2018-04-02T10:31:38.506Z,15.40
2018-04-02T10:34:04.710Z,14.97
2018-04-02T10:36:30.938Z,14.60
2018-04-02T10:38:57.170Z,12.70
2018-04-02T10:41:23.694Z,12.60
2018-04-02T10:43:50.026Z,13.40
2018-04-02T10:46:16.250Z,13.63
2018-04-02T10:48:42.466Z,12.13
2018-04-02T10:51:08.701Z,11.93
2018-04-02T10:53:41.983Z,11.03
2018-04-02T10:56:08.217Z,11.53
2018-04-02T10:58:34.417Z,12.03
2018-04-02T11:01:01.481Z,12.70
2018-04-02T11:03:27.743Z,12.10
2018-04-02T11:05:54.005Z,11.50
2018-04-02T11:08:20.264Z,11.37
2018-04-02T11:10:47.212Z,9.07
2018-04-02T11:13:13.425Z,9.00
2018-04-02T11:15:40.382Z,9.57
2018-04-02T11:18:06.606Z,8.47
2018-04-02T11:20:32.886Z,8.80
2018-04-02T11:22:59.106Z,8.90
2018-04-02T11:25:25.345Z,8.73
2018-04-02T11:27:52.394Z,8.80
2018-04-02T11:30:18.605Z,9.30
2018-04-02T11:32:44.798Z,10.13
2018-04-02T11:35:11.099Z,9.73
2018-04-02T11:37:38.124Z,8.90
2018-04-02T11:40:04.383Z,8.57
2018-04-02T11:42:31.321Z,7.80
2018-04-02T11:44:58.301Z,7.20
2018-04-02T11:47:24.494Z,6.00
2018-04-02T11:49:51.470Z,5.50
2018-04-02T11:52:17.676Z,5.10
2018-04-02T11:54:44.794Z,4.77
2018-04-02T11:57:11.086Z,4.37
2018-04-02T11:59:37.351Z,4.10
2018-04-02T12:02:04.344Z,4.67
2018-04-02T12:04:30.565Z,4.57
2018-04-02T12:06:56.765Z,3.70
2018-04-02T12:09:22.993Z,4.17
2018-04-02T12:11:49.232Z,6.07
2018-04-02T12:14:15.483Z,6.93
2018-04-02T12:16:41.732Z,7.40
2018-04-02T12:19:07.989Z,7.40
2018-04-02T12:21:34.231Z,7.17
2018-04-02T12:24:01.267Z,7.37
2018-04-02T12:26:27.485Z,8.33
2018-04-02T12:28:54.455Z,7.70
2018-04-02T12:31:21.442Z,8.47
2018-04-02T12:33:47.677Z,8.20
2018-04-02T12:36:14.007Z,7.90
2018-04-02T12:38:40.255Z,7.83
2018-04-02T12:41:06.518Z,7.60
2018-04-02T12:43:33.641Z,7.97
2018-04-02T12:45:59.851Z,7.07
2018-04-02T12:48:26.097Z,7.20
2018-04-02T12:50:52.310Z,7.30
2018-04-02T12:53:18.529Z,7.33
2018-04-02T12:55:44.779Z,6.57
2018-04-02T12:58:13.026Z,6.90
2018-04-02T13:00:39.235Z,6.60
2018-04-02T13:03:05.446Z,5.87
2018-04-02T13:05:39.490Z,6.30
2018-04-02T13:08:05.698Z,6.20
2018-04-02T13:10:31.972Z,6.00
2018-04-02T13:12:58.207Z,6.30
2018-04-02T13:15:25.165Z,6.73
2018-04-02T13:17:51.469Z,5.67
2018-04-02T13:20:18.306Z,6.40
2018-04-02T13:22:44.541Z,6.40
2018-04-02T13:25:10.814Z,6.10
2018-04-02T13:27:37.750Z,6.43
2018-04-02T13:30:04.727Z,5.97
2018-04-02T13:32:30.974Z,5.87
2018-04-02T13:34:57.202Z,5.37
2018-04-02T13:37:23.457Z,5.70
2018-04-02T13:39:50.506Z,5.43
2018-04-02T13:42:16.712Z,5.30
2018-04-02T13:44:42.918Z,4.83
2018-04-02T13:47:09.326Z,4.73
2018-04-02T13:49:36.375Z,5.37
2018-04-02T13:52:02.610Z,5.10
2018-04-02T13:54:28.994Z,4.77
2018-04-02T13:56:57.391Z,4.70
2018-04-02T13:59:24.682Z,4.40
2018-04-02T14:01:50.940Z,4.80
2018-04-02T14:04:17.140Z,4.50
2018-04-02T14:06:43.386Z,10.23
2018-04-02T14:09:09.618Z,4.20
2018-04-02T14:11:35.835Z,4.17
2018-04-02T14:14:02.104Z,4.27
2018-04-02T14:16:28.404Z,4.07
2018-04-02T14:18:55.391Z,3.87
2018-04-02T14:21:22.406Z,3.90
2018-04-02T14:23:48.621Z,4.07
2018-04-02T14:26:14.882Z,4.13
2018-04-02T14:28:48.218Z,4.30
2018-04-02T14:31:14.448Z,4.30
2018-04-02T14:33:40.731Z,4.17
2018-04-02T14:36:06.980Z,4.03
2018-04-02T14:38:33.537Z,3.57
2018-04-02T14:40:59.902Z,3.37
2018-04-02T14:43:26.178Z,3.37
2018-04-02T14:45:52.523Z,3.43
2018-04-02T14:48:18.760Z,3.30
2018-04-02T14:50:45.015Z,3.23
2018-04-02T14:53:11.286Z,3.10
2018-04-02T14:55:38.505Z,3.30
2018-04-02T14:58:04.870Z,3.00
2018-04-02T15:00:31.323Z,3.07
2018-04-02T15:02:57.794Z,3.00
2018-04-02T15:05:25.642Z,3.17
2018-04-02T15:07:51.990Z,2.83
2018-04-02T15:10:19.086Z,2.87
2018-04-02T15:12:45.360Z,2.80
2018-04-02T15:15:11.665Z,2.80
2018-04-02T15:17:38.098Z,2.90
2018-04-02T15:20:04.398Z,2.63
2018-04-02T15:22:31.446Z,2.73
2018-04-02T15:24:58.642Z,2.50
2018-04-02T15:27:25.025Z,2.87
2018-04-02T15:29:51.402Z,2.73
2018-04-02T15:32:17.801Z,2.53
2018-04-02T15:34:44.086Z,2.80
2018-04-02T15:37:10.374Z,2.80
2018-04-02T15:39:36.845Z,2.80
2018-04-02T15:42:03.867Z,2.37
2018-04-02T15:44:30.165Z,2.37
2018-04-02T15:46:57.164Z,2.30
2018-04-02T15:49:23.406Z,2.30
2018-04-02T15:51:49.667Z,2.23
2018-04-02T15:54:15.929Z,2.20
2018-04-02T15:56:42.154Z,2.03
2018-04-02T15:59:08.375Z,2.10
2018-04-02T16:01:34.638Z,2.07
2018-04-02T16:04:00.947Z,1.77
2018-04-02T16:06:27.205Z,1.90
2018-04-02T16:08:53.525Z,2.03
2018-04-02T16:11:19.799Z,2.00
2018-04-02T16:13:46.813Z,2.23
2018-04-02T16:16:13.098Z,2.53
2018-04-02T16:18:40.175Z,4.83
2018-04-02T16:21:06.453Z,6.50
2018-04-02T16:23:32.770Z,5.90
2018-04-02T16:25:59.789Z,5.40
2018-04-02T16:28:26.042Z,11.07
2018-04-02T16:30:53.009Z,13.53
2018-04-02T16:33:19.234Z,13.23
2018-04-02T16:35:45.493Z,9.30
2018-04-02T16:38:11.693Z,10.20
2018-04-02T16:40:37.952Z,8.97
2018-04-02T16:43:04.225Z,8.30
2018-04-02T16:45:31.241Z,6.40
2018-04-02T16:47:57.576Z,6.23
2018-04-02T16:50:23.908Z,6.07
2018-04-02T16:52:51.014Z,5.30
2018-04-02T16:55:17.289Z,4.87
2018-04-02T16:57:43.569Z,4.60
2018-04-02T17:00:09.822Z,3.30
2018-04-02T17:02:36.065Z,3.60
2018-04-02T17:05:02.382Z,3.33
2018-04-02T17:07:28.717Z,2.97
2018-04-02T17:09:55.762Z,3.10
2018-04-02T17:12:21.998Z,3.10
2018-04-02T17:14:48.223Z,2.50
2018-04-02T17:17:14.466Z,3.10
2018-04-02T17:19:40.703Z,2.90
2018-04-02T17:22:07.759Z,2.93
2018-04-02T17:24:34.840Z,3.13
2018-04-02T17:27:01.160Z,3.17
2018-04-02T17:29:27.388Z,3.00
2018-04-02T17:31:53.723Z,2.93
2018-04-02T17:34:19.957Z,3.10
2018-04-02T17:36:46.217Z,2.97
2018-04-02T17:39:12.463Z,3.30
2018-04-02T17:41:38.728Z,3.00
2018-04-02T17:44:04.999Z,2.93
2018-04-02T17:46:31.335Z,3.13
2018-04-02T17:48:57.679Z,2.60
2018-04-02T17:51:24.714Z,3.03
2018-04-02T17:53:50.990Z,2.90
2018-04-02T17:56:17.341Z,2.50
2018-04-02T17:58:44.289Z,2.50
2018-04-02T18:01:10.510Z,2.57
2018-04-02T18:03:36.823Z,2.53
2018-04-02T18:06:03.170Z,2.60
2018-04-02T18:08:29.379Z,2.60
2018-04-02T18:10:55.655Z,2.60
2018-04-02T18:13:21.938Z,2.70
2018-04-02T18:15:48.170Z,2.50
2018-04-02T18:18:14.466Z,2.80
2018-04-02T18:20:40.786Z,2.37
2018-04-02T18:23:07.024Z,2.20
2018-04-02T18:25:34.100Z,2.30
2018-04-02T18:28:00.373Z,2.50
2018-04-02T18:30:26.679Z,2.30
2018-04-02T18:32:52.909Z,2.70
2018-04-02T18:35:19.887Z,2.60
2018-04-02T18:37:46.221Z,2.80
2018-04-02T18:40:12.538Z,2.70
2018-04-02T18:42:39.430Z,2.50
2018-04-02T18:45:05.720Z,4.40
2018-04-02T18:47:31.894Z,2.70
2018-04-02T18:49:58.147Z,2.40
2018-04-02T18:52:24.380Z,4.83
2018-04-02T18:54:51.086Z,17.20
2018-04-02T18:57:17.371Z,3.03
2018-04-02T18:59:43.812Z,2.60
2018-04-02T19:02:10.049Z,2.70
2018-04-02T19:04:37.132Z,2.53
2018-04-02T19:07:03.350Z,2.80
2018-04-02T19:09:29.575Z,2.77
2018-04-02T19:11:55.817Z,2.60
2018-04-02T19:14:22.089Z,2.83
2018-04-02T19:16:49.257Z,2.90
2018-04-02T19:19:16.226Z,2.77
2018-04-02T19:21:42.469Z,2.80
2018-04-02T19:24:08.690Z,3.13
2018-04-02T19:26:35.003Z,3.10
2018-04-02T19:29:01.984Z,3.40
2018-04-02T19:31:28.239Z,3.80
2018-04-02T19:33:54.662Z,4.10
2018-04-02T19:36:20.930Z,4.20
2018-04-02T19:38:47.241Z,3.60
2018-04-02T19:41:14.237Z,3.63
2018-04-02T19:43:40.511Z,3.70
2018-04-02T19:46:06.765Z,3.33
2018-04-02T19:48:33.801Z,4.03
2018-04-02T19:51:01.077Z,3.37
2018-04-02T19:53:27.844Z,4.03
2018-04-02T19:55:54.317Z,4.03
2018-04-02T19:58:21.509Z,4.27
2018-04-02T20:00:48.189Z,3.83
2018-04-02T20:03:14.410Z,4.10
2018-04-02T20:05:40.612Z,3.67
2018-04-02T20:08:06.833Z,4.00
2018-04-02T20:10:33.116Z,3.83
2018-04-02T20:12:59.336Z,4.00
2018-04-02T20:15:26.357Z,4.07
2018-04-02T20:17:52.557Z,4.43
2018-04-02T20:20:18.809Z,4.20
2018-04-02T20:22:45.069Z,3.90
2018-04-02T20:25:12.070Z,6.27
2018-04-02T20:27:38.354Z,4.17
2018-04-02T20:30:05.465Z,4.30
2018-04-02T20:32:31.736Z,4.07
2018-04-02T20:34:58.830Z,4.50
2018-04-02T20:37:25.075Z,3.70
2018-04-02T20:39:51.286Z,3.90
2018-04-02T20:42:17.538Z,4.10
2018-04-02T20:44:43.804Z,4.07
2018-04-02T20:47:10.842Z,4.43
2018-04-02T20:49:37.823Z,4.50
2018-04-02T20:52:04.276Z,4.03
2018-04-02T20:54:31.344Z,4.20
2018-04-02T20:56:57.567Z,3.83
2018-04-02T20:59:23.794Z,3.90
2018-04-02T21:01:50.022Z,3.50
2018-04-02T21:04:16.980Z,3.90
2018-04-02T21:06:43.229Z,4.73
2018-04-02T21:09:10.221Z,3.53
2018-04-02T21:11:36.477Z,3.50
2018-04-02T21:14:02.704Z,3.60
2018-04-02T21:16:28.993Z,3.43
2018-04-02T21:18:56.206Z,3.50
2018-04-02T21:21:22.443Z,3.40
2018-04-02T21:23:49.440Z,3.23
2018-04-02T21:26:15.658Z,3.23
2018-04-02T21:28:41.971Z,3.43
2018-04-02T21:31:08.213Z,3.70
2018-04-02T21:33:34.459Z,3.40
2018-04-02T21:36:00.735Z,3.60
2018-04-02T21:38:26.949Z,3.50
2018-04-02T21:40:53.152Z,3.47
2018-04-02T21:43:19.400Z,3.53
2018-04-02T21:45:45.612Z,3.33
2018-04-02T21:48:11.874Z,3.30
2018-04-02T21:50:38.109Z,3.37
2018-04-02T21:53:04.372Z,3.00
2018-04-02T21:55:30.627Z,3.73
2018-04-02T21:57:56.859Z,3.40
2018-04-02T22:00:23.067Z,3.23
2018-04-02T22:02:49.294Z,3.40
2018-04-02T22:05:15.603Z,3.30
2018-04-02T22:07:41.858Z,3.87
2018-04-02T22:10:08.117Z,3.77
2018-04-02T22:12:35.074Z,3.00
2018-04-02T22:15:01.342Z,3.57
2018-04-02T22:17:27.562Z,2.90
2018-04-02T22:19:53.797Z,3.40
2018-04-02T22:22:20.176Z,5.33
2018-04-02T22:24:47.297Z,3.40
2018-04-02T22:27:13.524Z,3.30
2018-04-02T22:29:39.727Z,3.37
2018-04-02T22:32:05.961Z,2.93
2018-04-02T22:34:32.197Z,3.40
2018-04-02T22:36:59.270Z,3.30
2018-04-02T22:39:25.557Z,3.53
2018-04-02T22:41:51.831Z,3.33
2018-04-02T22:44:18.829Z,3.20
2018-04-02T22:46:45.058Z,3.50
2018-04-02T22:49:11.289Z,3.17
2018-04-02T22:51:37.557Z,3.20
2018-04-02T22:54:03.883Z,3.20
2018-04-02T22:56:30.138Z,3.10
2018-04-02T22:58:57.155Z,3.00
2018-04-02T23:01:23.432Z,3.27
2018-04-02T23:03:49.760Z,2.90
2018-04-02T23:06:16.706Z,2.80
2018-04-02T23:08:42.914Z,3.37
2018-04-02T23:11:09.124Z,3.43
2018-04-02T23:13:35.369Z,3.20
2018-04-02T23:16:02.488Z,3.00
2018-04-02T23:18:28.802Z,3.27
2018-04-02T23:20:55.822Z,3.50
2018-04-02T23:23:22.187Z,3.33
2018-04-02T23:25:48.407Z,2.93
2018-04-02T23:28:14.643Z,3.37
2018-04-02T23:30:40.873Z,3.20
2018-04-02T23:33:07.183Z,3.20
2018-04-02T23:35:33.484Z,2.90
2018-04-02T23:37:59.750Z,3.30
2018-04-02T23:40:26.033Z,3.13
2018-04-02T23:42:52.310Z,3.13
2018-04-02T23:45:18.506Z,3.17
2018-04-02T23:47:44.779Z,3.20
2018-04-02T23:50:11.065Z,2.90
2018-04-02T23:52:37.342Z,3.13
2018-04-02T23:55:04.347Z,2.80
2018-04-02T23:57:30.665Z,3.10
2018-04-02T23:59:57.651Z,2.70
